sensor_id;sensor_type;location;lat;lon;timestamp;P1;durP1;ratioP1;P2;durP2;ratioP2
48516;SDS011;34310;51.904;4.256;2022-12-18T00:01:48;29.60;;;20.35;;
48516;SDS011;34310;51.904;4.256;2022-12-18T00:04:18;27.10;;;19.27;;
48516;SDS011;34310;51.904;4.256;2022-12-18T00:06:49;25.33;;;18.40;;
48516;SDS011;34310;51.904;4.256;2022-12-18T00:09:16;26.85;;;19.02;;
48516;SDS011;34310;51.904;4.256;2022-12-18T00:11:43;27.02;;;19.45;;
48516;SDS011;34310;51.904;4.256;2022-12-18T00:14:11;28.20;;;20.27;;
48516;SDS011;34310;51.904;4.256;2022-12-18T00:16:40;30.67;;;21.05;;
48516;SDS011;34310;51.904;4.256;2022-12-18T00:19:11;27.38;;;19.17;;
48516;SDS011;34310;51.904;4.256;2022-12-18T00:21:39;29.10;;;19.88;;
48516;SDS011;34310;51.904;4.256;2022-12-18T00:24:07;27.60;;;19.80;;
48516;SDS011;34310;51.904;4.256;2022-12-18T00:26:36;31.35;;;20.38;;
48516;SDS011;34310;51.904;4.256;2022-12-18T00:29:10;30.45;;;20.95;;
48516;SDS011;34310;51.904;4.256;2022-12-18T00:31:40;29.15;;;20.35;;
48516;SDS011;34310;51.904;4.256;2022-12-18T00:34:09;31.23;;;20.75;;
48516;SDS011;34310;51.904;4.256;2022-12-18T00:36:38;30.55;;;21.00;;
48516;SDS011;34310;51.904;4.256;2022-12-18T00:39:06;30.38;;;20.73;;
48516;SDS011;34310;51.904;4.256;2022-12-18T00:49:49;31.30;;;21.15;;
48516;SDS011;34310;51.904;4.256;2022-12-18T00:52:16;31.58;;;21.48;;
48516;SDS011;34310;51.904;4.256;2022-12-18T00:54:43;29.73;;;21.02;;
48516;SDS011;34310;51.904;4.256;2022-12-18T00:57:11;31.13;;;21.63;;
48516;SDS011;34310;51.904;4.256;2022-12-18T00:59:38;31.30;;;20.52;;
48516;SDS011;34310;51.904;4.256;2022-12-18T01:02:05;29.23;;;19.55;;
48516;SDS011;34310;51.904;4.256;2022-12-18T01:04:32;31.33;;;21.63;;
48516;SDS011;34310;51.904;4.256;2022-12-18T01:07:00;31.40;;;21.10;;
48516;SDS011;34310;51.904;4.256;2022-12-18T01:11:59;32.63;;;20.98;;
48516;SDS011;34310;51.904;4.256;2022-12-18T01:14:26;31.00;;;20.90;;
48516;SDS011;34310;51.904;4.256;2022-12-18T01:16:54;32.38;;;21.27;;
48516;SDS011;34310;51.904;4.256;2022-12-18T01:19:21;33.33;;;21.00;;
48516;SDS011;34310;51.904;4.256;2022-12-18T01:21:48;32.50;;;21.17;;
48516;SDS011;34310;51.904;4.256;2022-12-18T01:24:15;32.60;;;21.70;;
48516;SDS011;34310;51.904;4.256;2022-12-18T01:26:42;32.75;;;21.77;;
48516;SDS011;34310;51.904;4.256;2022-12-18T01:29:10;33.83;;;21.73;;
48516;SDS011;34310;51.904;4.256;2022-12-18T01:31:37;32.63;;;22.38;;
48516;SDS011;34310;51.904;4.256;2022-12-18T01:34:04;32.58;;;21.60;;
48516;SDS011;34310;51.904;4.256;2022-12-18T01:36:33;36.10;;;22.95;;
48516;SDS011;34310;51.904;4.256;2022-12-18T01:39:06;31.42;;;21.05;;
48516;SDS011;34310;51.904;4.256;2022-12-18T01:41:36;32.95;;;21.98;;
48516;SDS011;34310;51.904;4.256;2022-12-18T01:47:29;34.08;;;22.73;;
48516;SDS011;34310;51.904;4.256;2022-12-18T01:52:51;36.10;;;22.88;;
48516;SDS011;34310;51.904;4.256;2022-12-18T01:55:28;36.53;;;23.17;;
48516;SDS011;34310;51.904;4.256;2022-12-18T01:57:58;34.65;;;22.88;;
48516;SDS011;34310;51.904;4.256;2022-12-18T02:00:27;34.97;;;23.27;;
48516;SDS011;34310;51.904;4.256;2022-12-18T02:02:55;35.38;;;23.17;;
48516;SDS011;34310;51.904;4.256;2022-12-18T02:05:32;33.83;;;22.05;;
48516;SDS011;34310;51.904;4.256;2022-12-18T02:08:18;35.65;;;23.63;;
48516;SDS011;34310;51.904;4.256;2022-12-18T02:18:56;35.60;;;22.88;;
48516;SDS011;34310;51.904;4.256;2022-12-18T02:26:51;34.72;;;23.00;;
48516;SDS011;34310;51.904;4.256;2022-12-18T02:29:49;34.05;;;22.40;;
48516;SDS011;34310;51.904;4.256;2022-12-18T02:32:27;34.30;;;21.70;;
48516;SDS011;34310;51.904;4.256;2022-12-18T02:35:01;33.83;;;22.15;;
48516;SDS011;34310;51.904;4.256;2022-12-18T02:37:31;32.90;;;21.50;;
48516;SDS011;34310;51.904;4.256;2022-12-18T02:40:00;31.20;;;21.25;;
48516;SDS011;34310;51.904;4.256;2022-12-18T02:42:31;33.05;;;21.27;;
48516;SDS011;34310;51.904;4.256;2022-12-18T02:44:59;31.67;;;21.02;;
48516;SDS011;34310;51.904;4.256;2022-12-18T02:47:30;28.58;;;19.48;;
48516;SDS011;34310;51.904;4.256;2022-12-18T02:50:22;30.83;;;20.75;;
48516;SDS011;34310;51.904;4.256;2022-12-18T02:58:29;32.72;;;21.30;;
48516;SDS011;34310;51.904;4.256;2022-12-18T03:01:06;28.85;;;19.45;;
48516;SDS011;34310;51.904;4.256;2022-12-18T03:03:55;32.13;;;20.67;;
48516;SDS011;34310;51.904;4.256;2022-12-18T03:06:31;32.03;;;19.75;;
48516;SDS011;34310;51.904;4.256;2022-12-18T03:09:09;28.42;;;19.20;;
48516;SDS011;34310;51.904;4.256;2022-12-18T03:11:45;32.08;;;20.48;;
48516;SDS011;34310;51.904;4.256;2022-12-18T03:14:41;31.58;;;20.10;;
48516;SDS011;34310;51.904;4.256;2022-12-18T03:17:12;31.63;;;20.13;;
48516;SDS011;34310;51.904;4.256;2022-12-18T03:19:43;31.55;;;20.55;;
48516;SDS011;34310;51.904;4.256;2022-12-18T03:22:12;30.83;;;19.70;;
48516;SDS011;34310;51.904;4.256;2022-12-18T03:24:42;29.33;;;19.08;;
48516;SDS011;34310;51.904;4.256;2022-12-18T03:27:11;29.55;;;19.88;;
48516;SDS011;34310;51.904;4.256;2022-12-18T03:29:51;30.33;;;20.27;;
48516;SDS011;34310;51.904;4.256;2022-12-18T03:33:18;28.67;;;19.05;;
48516;SDS011;34310;51.904;4.256;2022-12-18T03:35:38;29.17;;;20.25;;
48516;SDS011;34310;51.904;4.256;2022-12-18T03:38:09;29.25;;;19.38;;
48516;SDS011;34310;51.904;4.256;2022-12-18T03:52:04;29.10;;;19.52;;
48516;SDS011;34310;51.904;4.256;2022-12-18T03:54:36;27.73;;;18.77;;
48516;SDS011;34310;51.904;4.256;2022-12-18T03:57:11;31.23;;;19.67;;
48516;SDS011;34310;51.904;4.256;2022-12-18T03:59:43;27.92;;;18.52;;
48516;SDS011;34310;51.904;4.256;2022-12-18T04:02:16;28.77;;;18.80;;
48516;SDS011;34310;51.904;4.256;2022-12-18T04:04:44;27.42;;;18.52;;
48516;SDS011;34310;51.904;4.256;2022-12-18T04:07:14;27.42;;;18.55;;
48516;SDS011;34310;51.904;4.256;2022-12-18T04:09:43;28.70;;;18.85;;
48516;SDS011;34310;51.904;4.256;2022-12-18T04:12:14;25.02;;;17.55;;
48516;SDS011;34310;51.904;4.256;2022-12-18T04:14:41;25.88;;;17.20;;
48516;SDS011;34310;51.904;4.256;2022-12-18T04:17:09;26.00;;;17.30;;
48516;SDS011;34310;51.904;4.256;2022-12-18T04:19:38;25.42;;;17.02;;
48516;SDS011;34310;51.904;4.256;2022-12-18T04:22:06;25.23;;;16.95;;
48516;SDS011;34310;51.904;4.256;2022-12-18T04:24:35;25.63;;;16.25;;
48516;SDS011;34310;51.904;4.256;2022-12-18T04:27:03;23.83;;;16.42;;
48516;SDS011;34310;51.904;4.256;2022-12-18T04:29:31;23.33;;;16.35;;
48516;SDS011;34310;51.904;4.256;2022-12-18T04:31:58;23.17;;;15.45;;
48516;SDS011;34310;51.904;4.256;2022-12-18T04:34:26;23.77;;;15.85;;
48516;SDS011;34310;51.904;4.256;2022-12-18T04:36:53;22.58;;;15.95;;
48516;SDS011;34310;51.904;4.256;2022-12-18T04:39:21;22.27;;;15.65;;
48516;SDS011;34310;51.904;4.256;2022-12-18T04:41:48;22.17;;;15.50;;
48516;SDS011;34310;51.904;4.256;2022-12-18T04:44:15;18.73;;;13.57;;
48516;SDS011;34310;51.904;4.256;2022-12-18T04:46:43;22.27;;;14.85;;
48516;SDS011;34310;51.904;4.256;2022-12-18T04:49:10;21.98;;;15.25;;
48516;SDS011;34310;51.904;4.256;2022-12-18T04:51:38;21.48;;;14.73;;
48516;SDS011;34310;51.904;4.256;2022-12-18T04:54:05;20.95;;;14.40;;
48516;SDS011;34310;51.904;4.256;2022-12-18T04:56:33;20.25;;;14.85;;
48516;SDS011;34310;51.904;4.256;2022-12-18T04:59:00;20.65;;;14.73;;
48516;SDS011;34310;51.904;4.256;2022-12-18T05:01:27;19.75;;;14.40;;
48516;SDS011;34310;51.904;4.256;2022-12-18T05:04:00;19.05;;;14.23;;
48516;SDS011;34310;51.904;4.256;2022-12-18T05:06:28;19.63;;;14.52;;
48516;SDS011;34310;51.904;4.256;2022-12-18T05:08:55;18.90;;;13.73;;
48516;SDS011;34310;51.904;4.256;2022-12-18T05:11:23;21.52;;;14.35;;
48516;SDS011;34310;51.904;4.256;2022-12-18T05:13:50;19.25;;;13.88;;
48516;SDS011;34310;51.904;4.256;2022-12-18T05:16:17;21.60;;;14.40;;
48516;SDS011;34310;51.904;4.256;2022-12-18T05:18:45;19.98;;;13.98;;
48516;SDS011;34310;51.904;4.256;2022-12-18T05:21:12;19.67;;;13.35;;
48516;SDS011;34310;51.904;4.256;2022-12-18T05:23:39;20.80;;;14.30;;
48516;SDS011;34310;51.904;4.256;2022-12-18T05:26:07;18.40;;;13.57;;
48516;SDS011;34310;51.904;4.256;2022-12-18T05:28:40;20.02;;;14.32;;
48516;SDS011;34310;51.904;4.256;2022-12-18T05:31:07;20.27;;;14.10;;
48516;SDS011;34310;51.904;4.256;2022-12-18T05:33:34;18.35;;;13.43;;
48516;SDS011;34310;51.904;4.256;2022-12-18T05:36:04;21.52;;;13.45;;
48516;SDS011;34310;51.904;4.256;2022-12-18T05:38:33;20.42;;;13.38;;
48516;SDS011;34310;51.904;4.256;2022-12-18T05:41:02;18.77;;;13.13;;
48516;SDS011;34310;51.904;4.256;2022-12-18T05:43:29;17.73;;;12.57;;
48516;SDS011;34310;51.904;4.256;2022-12-18T05:45:57;17.65;;;12.68;;
48516;SDS011;34310;51.904;4.256;2022-12-18T05:48:28;17.95;;;13.13;;
48516;SDS011;34310;51.904;4.256;2022-12-18T05:50:56;19.00;;;13.10;;
48516;SDS011;34310;51.904;4.256;2022-12-18T05:53:34;19.00;;;13.45;;
48516;SDS011;34310;51.904;4.256;2022-12-18T05:56:04;18.27;;;12.52;;
48516;SDS011;34310;51.904;4.256;2022-12-18T05:58:33;18.67;;;12.98;;
48516;SDS011;34310;51.904;4.256;2022-12-18T06:01:08;18.33;;;12.95;;
48516;SDS011;34310;51.904;4.256;2022-12-18T06:03:37;17.67;;;12.68;;
48516;SDS011;34310;51.904;4.256;2022-12-18T06:06:39;17.38;;;12.43;;
48516;SDS011;34310;51.904;4.256;2022-12-18T06:08:59;18.40;;;12.70;;
48516;SDS011;34310;51.904;4.256;2022-12-18T06:11:27;18.10;;;12.57;;
48516;SDS011;34310;51.904;4.256;2022-12-18T06:13:55;18.50;;;12.63;;
48516;SDS011;34310;51.904;4.256;2022-12-18T06:16:25;19.35;;;12.88;;
48516;SDS011;34310;51.904;4.256;2022-12-18T06:18:57;17.40;;;12.30;;
48516;SDS011;34310;51.904;4.256;2022-12-18T06:21:27;18.42;;;12.57;;
48516;SDS011;34310;51.904;4.256;2022-12-18T06:23:55;17.95;;;12.80;;
48516;SDS011;34310;51.904;4.256;2022-12-18T06:26:22;17.90;;;12.43;;
48516;SDS011;34310;51.904;4.256;2022-12-18T06:28:53;15.85;;;11.30;;
48516;SDS011;34310;51.904;4.256;2022-12-18T06:31:21;16.55;;;11.45;;
48516;SDS011;34310;51.904;4.256;2022-12-18T06:33:48;15.57;;;10.80;;
48516;SDS011;34310;51.904;4.256;2022-12-18T06:36:16;15.07;;;10.90;;
48516;SDS011;34310;51.904;4.256;2022-12-18T06:38:43;15.82;;;10.68;;
48516;SDS011;34310;51.904;4.256;2022-12-18T06:41:12;14.73;;;10.90;;
48516;SDS011;34310;51.904;4.256;2022-12-18T06:43:41;13.15;;;10.07;;
48516;SDS011;34310;51.904;4.256;2022-12-18T06:46:10;13.98;;;10.02;;
48516;SDS011;34310;51.904;4.256;2022-12-18T06:48:38;13.80;;;9.98;;
48516;SDS011;34310;51.904;4.256;2022-12-18T06:51:06;14.60;;;10.40;;
48516;SDS011;34310;51.904;4.256;2022-12-18T06:53:33;13.60;;;10.52;;
48516;SDS011;34310;51.904;4.256;2022-12-18T06:58:35;14.20;;;9.90;;
48516;SDS011;34310;51.904;4.256;2022-12-18T07:01:04;13.65;;;10.00;;
48516;SDS011;34310;51.904;4.256;2022-12-18T07:03:33;13.43;;;10.40;;
48516;SDS011;34310;51.904;4.256;2022-12-18T07:06:01;14.60;;;9.98;;
48516;SDS011;34310;51.904;4.256;2022-12-18T07:08:28;13.95;;;10.50;;
48516;SDS011;34310;51.904;4.256;2022-12-18T07:10:57;15.30;;;10.55;;
48516;SDS011;34310;51.904;4.256;2022-12-18T07:13:24;13.57;;;9.93;;
48516;SDS011;34310;51.904;4.256;2022-12-18T07:15:52;15.98;;;10.57;;
48516;SDS011;34310;51.904;4.256;2022-12-18T07:18:20;14.25;;;10.45;;
48516;SDS011;34310;51.904;4.256;2022-12-18T07:20:47;13.98;;;10.48;;
48516;SDS011;34310;51.904;4.256;2022-12-18T07:23:14;15.32;;;10.95;;
48516;SDS011;34310;51.904;4.256;2022-12-18T07:25:42;13.85;;;10.30;;
48516;SDS011;34310;51.904;4.256;2022-12-18T07:28:09;14.30;;;10.20;;
48516;SDS011;34310;51.904;4.256;2022-12-18T07:30:42;12.95;;;10.05;;
48516;SDS011;34310;51.904;4.256;2022-12-18T07:33:10;11.68;;;9.85;;
48516;SDS011;34310;51.904;4.256;2022-12-18T07:35:37;13.68;;;10.32;;
48516;SDS011;34310;51.904;4.256;2022-12-18T07:38:04;13.93;;;10.50;;
48516;SDS011;34310;51.904;4.256;2022-12-18T07:40:32;13.50;;;9.57;;
48516;SDS011;34310;51.904;4.256;2022-12-18T07:42:59;13.50;;;10.52;;
48516;SDS011;34310;51.904;4.256;2022-12-18T07:45:26;13.95;;;10.38;;
48516;SDS011;34310;51.904;4.256;2022-12-18T07:47:53;13.40;;;10.00;;
48516;SDS011;34310;51.904;4.256;2022-12-18T07:50:21;12.93;;;9.40;;
48516;SDS011;34310;51.904;4.256;2022-12-18T07:52:48;14.27;;;10.40;;
48516;SDS011;34310;51.904;4.256;2022-12-18T07:55:15;12.63;;;9.82;;
48516;SDS011;34310;51.904;4.256;2022-12-18T07:57:42;13.43;;;9.60;;
48516;SDS011;34310;51.904;4.256;2022-12-18T08:00:24;13.05;;;9.98;;
48516;SDS011;34310;51.904;4.256;2022-12-18T08:02:51;12.98;;;10.18;;
48516;SDS011;34310;51.904;4.256;2022-12-18T08:05:19;13.55;;;9.68;;
48516;SDS011;34310;51.904;4.256;2022-12-18T08:07:47;12.90;;;9.73;;
48516;SDS011;34310;51.904;4.256;2022-12-18T08:10:14;12.40;;;9.52;;
48516;SDS011;34310;51.904;4.256;2022-12-18T08:12:42;12.48;;;9.45;;
48516;SDS011;34310;51.904;4.256;2022-12-18T08:15:09;11.40;;;8.80;;
48516;SDS011;34310;51.904;4.256;2022-12-18T08:17:36;11.18;;;8.80;;
48516;SDS011;34310;51.904;4.256;2022-12-18T08:20:04;11.10;;;8.63;;
48516;SDS011;34310;51.904;4.256;2022-12-18T08:22:33;12.15;;;8.85;;
48516;SDS011;34310;51.904;4.256;2022-12-18T08:25:02;10.65;;;8.23;;
48516;SDS011;34310;51.904;4.256;2022-12-18T08:27:30;9.80;;;7.97;;
48516;SDS011;34310;51.904;4.256;2022-12-18T08:29:57;9.93;;;8.00;;
48516;SDS011;34310;51.904;4.256;2022-12-18T08:32:25;11.75;;;9.02;;
48516;SDS011;34310;51.904;4.256;2022-12-18T08:34:54;9.95;;;8.13;;
48516;SDS011;34310;51.904;4.256;2022-12-18T08:37:21;10.30;;;8.02;;
48516;SDS011;34310;51.904;4.256;2022-12-18T08:39:48;10.82;;;8.20;;
48516;SDS011;34310;51.904;4.256;2022-12-18T08:42:15;10.80;;;8.05;;
48516;SDS011;34310;51.904;4.256;2022-12-18T08:45:02;12.10;;;8.55;;
48516;SDS011;34310;51.904;4.256;2022-12-18T08:47:29;9.80;;;8.10;;
48516;SDS011;34310;51.904;4.256;2022-12-18T08:49:57;10.15;;;8.15;;
48516;SDS011;34310;51.904;4.256;2022-12-18T08:52:24;10.18;;;8.05;;
48516;SDS011;34310;51.904;4.256;2022-12-18T08:54:51;10.55;;;8.15;;
48516;SDS011;34310;51.904;4.256;2022-12-18T08:57:19;9.45;;;7.78;;
48516;SDS011;34310;51.904;4.256;2022-12-18T08:59:46;10.77;;;8.27;;
48516;SDS011;34310;51.904;4.256;2022-12-18T09:02:14;10.55;;;8.05;;
48516;SDS011;34310;51.904;4.256;2022-12-18T09:04:42;11.05;;;8.02;;
48516;SDS011;34310;51.904;4.256;2022-12-18T09:07:11;10.68;;;8.02;;
48516;SDS011;34310;51.904;4.256;2022-12-18T09:09:39;8.25;;;6.88;;
48516;SDS011;34310;51.904;4.256;2022-12-18T09:12:06;9.95;;;8.02;;
48516;SDS011;34310;51.904;4.256;2022-12-18T09:14:33;9.43;;;7.72;;
48516;SDS011;34310;51.904;4.256;2022-12-18T09:17:01;10.00;;;7.93;;
48516;SDS011;34310;51.904;4.256;2022-12-18T09:19:28;10.40;;;8.13;;
48516;SDS011;34310;51.904;4.256;2022-12-18T09:21:56;10.13;;;7.45;;
48516;SDS011;34310;51.904;4.256;2022-12-18T09:24:23;9.38;;;7.40;;
48516;SDS011;34310;51.904;4.256;2022-12-18T09:26:52;9.27;;;7.55;;
48516;SDS011;34310;51.904;4.256;2022-12-18T09:29:23;8.90;;;7.40;;
48516;SDS011;34310;51.904;4.256;2022-12-18T09:31:50;9.95;;;7.60;;
48516;SDS011;34310;51.904;4.256;2022-12-18T09:34:17;10.98;;;8.02;;
48516;SDS011;34310;51.904;4.256;2022-12-18T09:36:47;11.13;;;7.53;;
48516;SDS011;34310;51.904;4.256;2022-12-18T09:39:15;10.52;;;7.35;;
48516;SDS011;34310;51.904;4.256;2022-12-18T09:41:52;9.05;;;7.55;;
48516;SDS011;34310;51.904;4.256;2022-12-18T09:44:29;14.30;;;7.75;;
48516;SDS011;34310;51.904;4.256;2022-12-18T09:47:15;9.13;;;7.53;;
48516;SDS011;34310;51.904;4.256;2022-12-18T09:50:03;9.25;;;7.63;;
48516;SDS011;34310;51.904;4.256;2022-12-18T09:52:44;11.90;;;7.35;;
48516;SDS011;34310;51.904;4.256;2022-12-18T09:55:19;8.57;;;7.35;;
48516;SDS011;34310;51.904;4.256;2022-12-18T09:58:06;7.47;;;6.38;;
48516;SDS011;34310;51.904;4.256;2022-12-18T10:00:40;11.90;;;6.97;;
48516;SDS011;34310;51.904;4.256;2022-12-18T10:03:09;8.55;;;6.63;;
48516;SDS011;34310;51.904;4.256;2022-12-18T10:14:14;8.05;;;6.53;;
48516;SDS011;34310;51.904;4.256;2022-12-18T10:17:11;7.20;;;5.97;;
48516;SDS011;34310;51.904;4.256;2022-12-18T10:25:05;7.47;;;5.93;;
48516;SDS011;34310;51.904;4.256;2022-12-18T10:27:52;8.52;;;6.07;;
48516;SDS011;34310;51.904;4.256;2022-12-18T10:30:33;7.80;;;5.75;;
48516;SDS011;34310;51.904;4.256;2022-12-18T10:33:03;10.38;;;7.00;;
48516;SDS011;34310;51.904;4.256;2022-12-18T10:35:31;9.88;;;6.32;;
48516;SDS011;34310;51.904;4.256;2022-12-18T10:40:47;8.77;;;6.03;;
48516;SDS011;34310;51.904;4.256;2022-12-18T10:43:33;7.45;;;5.97;;
48516;SDS011;34310;51.904;4.256;2022-12-18T10:48:37;13.77;;;6.45;;
48516;SDS011;34310;51.904;4.256;2022-12-18T10:51:08;10.18;;;6.43;;
48516;SDS011;34310;51.904;4.256;2022-12-18T10:53:39;9.13;;;6.95;;
48516;SDS011;34310;51.904;4.256;2022-12-18T10:56:08;12.73;;;7.00;;
48516;SDS011;34310;51.904;4.256;2022-12-18T10:58:37;10.35;;;5.72;;
48516;SDS011;34310;51.904;4.256;2022-12-18T11:01:16;11.45;;;6.32;;
48516;SDS011;34310;51.904;4.256;2022-12-18T11:06:27;7.25;;;5.88;;
48516;SDS011;34310;51.904;4.256;2022-12-18T11:09:02;7.60;;;5.50;;
48516;SDS011;34310;51.904;4.256;2022-12-18T11:11:39;7.32;;;5.80;;
48516;SDS011;34310;51.904;4.256;2022-12-18T11:14:15;11.95;;;6.03;;
48516;SDS011;34310;51.904;4.256;2022-12-18T11:16:48;8.38;;;5.75;;
48516;SDS011;34310;51.904;4.256;2022-12-18T11:19:40;7.85;;;6.30;;
48516;SDS011;34310;51.904;4.256;2022-12-18T11:22:21;7.22;;;5.80;;
48516;SDS011;34310;51.904;4.256;2022-12-18T11:27:56;9.02;;;6.63;;
48516;SDS011;34310;51.904;4.256;2022-12-18T11:30:43;11.38;;;6.80;;
48516;SDS011;34310;51.904;4.256;2022-12-18T11:33:11;9.60;;;6.85;;
48516;SDS011;34310;51.904;4.256;2022-12-18T11:38:21;9.68;;;6.97;;
48516;SDS011;34310;51.904;4.256;2022-12-18T11:44:01;10.90;;;8.25;;
48516;SDS011;34310;51.904;4.256;2022-12-18T11:46:32;13.07;;;8.68;;
48516;SDS011;34310;51.904;4.256;2022-12-18T11:49:14;11.65;;;8.40;;
48516;SDS011;34310;51.904;4.256;2022-12-18T11:54:25;15.23;;;9.30;;
48516;SDS011;34310;51.904;4.256;2022-12-18T11:56:56;13.02;;;9.52;;
48516;SDS011;34310;51.904;4.256;2022-12-18T12:05:17;14.57;;;10.80;;
48516;SDS011;34310;51.904;4.256;2022-12-18T12:08:05;20.17;;;10.48;;
48516;SDS011;34310;51.904;4.256;2022-12-18T12:16:40;16.95;;;11.60;;
48516;SDS011;34310;51.904;4.256;2022-12-18T12:19:33;17.70;;;12.13;;
48516;SDS011;34310;51.904;4.256;2022-12-18T12:22:18;16.42;;;11.20;;
48516;SDS011;34310;51.904;4.256;2022-12-18T12:25:42;17.00;;;11.95;;
48516;SDS011;34310;51.904;4.256;2022-12-18T12:31:07;17.25;;;12.07;;
48516;SDS011;34310;51.904;4.256;2022-12-18T12:34:01;17.48;;;11.85;;
48516;SDS011;34310;51.904;4.256;2022-12-18T12:39:17;17.50;;;11.80;;
48516;SDS011;34310;51.904;4.256;2022-12-18T12:41:48;16.88;;;11.57;;
48516;SDS011;34310;51.904;4.256;2022-12-18T12:44:44;17.77;;;11.40;;
48516;SDS011;34310;51.904;4.256;2022-12-18T12:47:26;16.13;;;11.02;;
48516;SDS011;34310;51.904;4.256;2022-12-18T12:50:03;15.23;;;10.93;;
48516;SDS011;34310;51.904;4.256;2022-12-18T12:52:45;16.05;;;10.52;;
48516;SDS011;34310;51.904;4.256;2022-12-18T12:55:26;14.43;;;10.40;;
48516;SDS011;34310;51.904;4.256;2022-12-18T12:58:14;17.20;;;10.38;;
48516;SDS011;34310;51.904;4.256;2022-12-18T13:01:13;17.08;;;10.05;;
48516;SDS011;34310;51.904;4.256;2022-12-18T13:04:02;13.82;;;9.80;;
48516;SDS011;34310;51.904;4.256;2022-12-18T13:06:37;13.60;;;9.45;;
48516;SDS011;34310;51.904;4.256;2022-12-18T13:09:12;15.90;;;9.75;;
48516;SDS011;34310;51.904;4.256;2022-12-18T13:11:41;11.75;;;9.35;;
48516;SDS011;34310;51.904;4.256;2022-12-18T13:14:41;13.80;;;9.23;;
48516;SDS011;34310;51.904;4.256;2022-12-18T13:19:52;13.38;;;9.43;;
48516;SDS011;34310;51.904;4.256;2022-12-18T13:22:40;13.48;;;9.32;;
48516;SDS011;34310;51.904;4.256;2022-12-18T13:28:03;12.60;;;9.20;;
48516;SDS011;34310;51.904;4.256;2022-12-18T13:43:21;11.13;;;8.60;;
48516;SDS011;34310;51.904;4.256;2022-12-18T13:48:49;11.68;;;8.52;;
48516;SDS011;34310;51.904;4.256;2022-12-18T13:51:23;12.18;;;9.13;;
48516;SDS011;34310;51.904;4.256;2022-12-18T13:54:27;12.95;;;8.43;;
48516;SDS011;34310;51.904;4.256;2022-12-18T13:56:48;10.40;;;8.48;;
48516;SDS011;34310;51.904;4.256;2022-12-18T13:59:22;12.85;;;8.98;;
48516;SDS011;34310;51.904;4.256;2022-12-18T14:01:52;14.00;;;8.20;;
48516;SDS011;34310;51.904;4.256;2022-12-18T14:06:54;12.35;;;8.57;;
48516;SDS011;34310;51.904;4.256;2022-12-18T14:09:26;11.90;;;8.90;;
48516;SDS011;34310;51.904;4.256;2022-12-18T14:11:57;10.95;;;8.32;;
48516;SDS011;34310;51.904;4.256;2022-12-18T14:14:45;10.88;;;8.27;;
48516;SDS011;34310;51.904;4.256;2022-12-18T14:17:17;12.07;;;8.35;;
48516;SDS011;34310;51.904;4.256;2022-12-18T14:19:47;11.27;;;8.05;;
48516;SDS011;34310;51.904;4.256;2022-12-18T14:22:17;10.68;;;7.53;;
48516;SDS011;34310;51.904;4.256;2022-12-18T14:24:47;11.07;;;7.93;;
48516;SDS011;34310;51.904;4.256;2022-12-18T14:27:30;13.10;;;7.90;;
48516;SDS011;34310;51.904;4.256;2022-12-18T14:29:57;11.00;;;7.50;;
48516;SDS011;34310;51.904;4.256;2022-12-18T14:32:25;10.68;;;8.13;;
48516;SDS011;34310;51.904;4.256;2022-12-18T14:34:53;11.07;;;7.80;;
48516;SDS011;34310;51.904;4.256;2022-12-18T14:37:22;10.25;;;8.02;;
48516;SDS011;34310;51.904;4.256;2022-12-18T14:39:54;9.38;;;7.55;;
48516;SDS011;34310;51.904;4.256;2022-12-18T14:42:35;13.13;;;8.50;;
48516;SDS011;34310;51.904;4.256;2022-12-18T14:48:52;12.63;;;8.93;;
48516;SDS011;34310;51.904;4.256;2022-12-18T14:53:34;12.80;;;10.00;;
48516;SDS011;34310;51.904;4.256;2022-12-18T14:56:21;14.02;;;9.70;;
48516;SDS011;34310;51.904;4.256;2022-12-18T14:58:53;14.45;;;10.13;;
48516;SDS011;34310;51.904;4.256;2022-12-18T15:01:33;13.68;;;10.30;;
48516;SDS011;34310;51.904;4.256;2022-12-18T15:04:04;13.20;;;10.20;;
48516;SDS011;34310;51.904;4.256;2022-12-18T15:06:50;17.38;;;10.70;;
48516;SDS011;34310;51.904;4.256;2022-12-18T15:12:41;14.13;;;10.85;;
48516;SDS011;34310;51.904;4.256;2022-12-18T15:18:00;13.82;;;10.70;;
48516;SDS011;34310;51.904;4.256;2022-12-18T15:20:32;14.32;;;10.88;;
48516;SDS011;34310;51.904;4.256;2022-12-18T15:23:23;14.65;;;11.07;;
48516;SDS011;34310;51.904;4.256;2022-12-18T15:25:54;18.92;;;12.95;;
48516;SDS011;34310;51.904;4.256;2022-12-18T15:28:48;16.98;;;13.05;;
48516;SDS011;34310;51.904;4.256;2022-12-18T15:36:22;15.60;;;11.55;;
48516;SDS011;34310;51.904;4.256;2022-12-18T15:38:53;17.17;;;11.73;;
48516;SDS011;34310;51.904;4.256;2022-12-18T15:41:31;14.10;;;11.07;;
48516;SDS011;34310;51.904;4.256;2022-12-18T15:44:03;14.63;;;11.00;;
48516;SDS011;34310;51.904;4.256;2022-12-18T15:46:48;16.45;;;10.90;;
48516;SDS011;34310;51.904;4.256;2022-12-18T15:49:15;14.35;;;11.32;;
48516;SDS011;34310;51.904;4.256;2022-12-18T15:51:43;13.20;;;10.57;;
48516;SDS011;34310;51.904;4.256;2022-12-18T15:54:13;13.32;;;10.23;;
48516;SDS011;34310;51.904;4.256;2022-12-18T15:57:04;14.43;;;10.77;;
48516;SDS011;34310;51.904;4.256;2022-12-18T15:59:52;14.50;;;11.50;;
48516;SDS011;34310;51.904;4.256;2022-12-18T16:02:22;14.65;;;10.68;;
48516;SDS011;34310;51.904;4.256;2022-12-18T16:04:51;18.05;;;11.20;;
48516;SDS011;34310;51.904;4.256;2022-12-18T16:07:20;15.88;;;11.52;;
48516;SDS011;34310;51.904;4.256;2022-12-18T16:09:50;15.00;;;11.10;;
48516;SDS011;34310;51.904;4.256;2022-12-18T16:12:21;15.23;;;11.35;;
48516;SDS011;34310;51.904;4.256;2022-12-18T16:14:50;14.50;;;11.52;;
48516;SDS011;34310;51.904;4.256;2022-12-18T16:17:17;13.00;;;10.73;;
48516;SDS011;34310;51.904;4.256;2022-12-18T16:19:45;14.98;;;11.23;;
48516;SDS011;34310;51.904;4.256;2022-12-18T16:22:15;14.32;;;11.57;;
48516;SDS011;34310;51.904;4.256;2022-12-18T16:24:49;14.77;;;11.07;;
48516;SDS011;34310;51.904;4.256;2022-12-18T16:27:17;14.27;;;11.55;;
48516;SDS011;34310;51.904;4.256;2022-12-18T16:29:45;19.67;;;12.10;;
48516;SDS011;34310;51.904;4.256;2022-12-18T16:32:14;15.48;;;11.68;;
48516;SDS011;34310;51.904;4.256;2022-12-18T16:34:43;14.90;;;11.32;;
48516;SDS011;34310;51.904;4.256;2022-12-18T16:37:12;15.77;;;10.57;;
48516;SDS011;34310;51.904;4.256;2022-12-18T16:39:40;14.70;;;11.30;;
48516;SDS011;34310;51.904;4.256;2022-12-18T16:42:17;15.43;;;11.43;;
48516;SDS011;34310;51.904;4.256;2022-12-18T16:44:46;13.85;;;11.18;;
48516;SDS011;34310;51.904;4.256;2022-12-18T16:47:15;16.58;;;11.15;;
48516;SDS011;34310;51.904;4.256;2022-12-18T16:49:43;14.35;;;11.27;;
48516;SDS011;34310;51.904;4.256;2022-12-18T16:52:11;16.50;;;11.57;;
48516;SDS011;34310;51.904;4.256;2022-12-18T16:54:39;14.82;;;11.05;;
48516;SDS011;34310;51.904;4.256;2022-12-18T16:57:06;15.15;;;10.70;;
48516;SDS011;34310;51.904;4.256;2022-12-18T16:59:35;20.38;;;12.55;;
48516;SDS011;34310;51.904;4.256;2022-12-18T17:02:03;23.00;;;14.15;;
48516;SDS011;34310;51.904;4.256;2022-12-18T17:04:30;17.98;;;13.73;;
48516;SDS011;34310;51.904;4.256;2022-12-18T17:06:58;21.40;;;15.63;;
48516;SDS011;34310;51.904;4.256;2022-12-18T17:09:26;21.77;;;14.80;;
48516;SDS011;34310;51.904;4.256;2022-12-18T17:11:53;20.65;;;16.13;;
48516;SDS011;34310;51.904;4.256;2022-12-18T17:14:22;22.30;;;16.23;;
48516;SDS011;34310;51.904;4.256;2022-12-18T17:16:50;21.65;;;16.20;;
48516;SDS011;34310;51.904;4.256;2022-12-18T17:19:38;22.42;;;16.30;;